createdAt,value
2018-03-14T00:01:41.991Z,17.83
2018-03-14T00:04:09.544Z,15.82
2018-03-14T00:06:37.582Z,18.27
2018-03-14T00:09:05.133Z,21.77
2018-03-14T00:11:32.657Z,14.23
2018-03-14T00:14:00.225Z,20.92
2018-03-14T00:16:27.787Z,18.75
2018-03-14T00:18:56.278Z,14.32
2018-03-14T00:21:23.828Z,16.80
2018-03-14T00:23:51.350Z,17.40
2018-03-14T00:26:19.293Z,21.60
2018-03-14T00:28:46.829Z,22.85
2018-03-14T00:31:14.365Z,17.58
2018-03-14T00:33:41.929Z,19.92
2018-03-14T00:36:09.474Z,16.62
2018-03-14T00:38:37.256Z,16.55
2018-03-14T00:41:05.767Z,14.32
2018-03-14T00:43:33.282Z,19.23
2018-03-14T00:46:00.834Z,14.45
2018-03-14T00:48:29.367Z,17.00
2018-03-14T00:50:57.104Z,14.45
2018-03-14T00:53:24.643Z,13.15
2018-03-14T00:55:52.186Z,13.85
2018-03-14T00:58:19.755Z,13.00
2018-03-14T01:00:47.286Z,10.80
2018-03-14T01:03:15.221Z,9.82
2018-03-14T01:05:43.625Z,9.25
2018-03-14T01:08:11.149Z,9.73
2018-03-14T01:10:38.695Z,9.80
2018-03-14T01:13:06.219Z,12.37
2018-03-14T01:15:33.925Z,11.50
2018-03-14T01:18:01.448Z,7.00
2018-03-14T01:20:28.974Z,8.30
2018-03-14T01:22:56.524Z,7.82
2018-03-14T01:25:24.057Z,12.57
2018-03-14T01:27:51.826Z,7.72
2018-03-14T01:30:19.363Z,10.15
2018-03-14T01:32:46.893Z,10.40
2018-03-14T01:35:14.437Z,9.90
2018-03-14T01:37:41.976Z,14.13
2018-03-14T01:40:09.682Z,8.23
2018-03-14T01:42:37.215Z,11.52
2018-03-14T01:45:04.740Z,9.98
2018-03-14T01:47:32.733Z,9.82
2018-03-14T01:50:00.277Z,12.30
2018-03-14T01:52:28.129Z,13.30
2018-03-14T01:54:55.649Z,9.13
2018-03-14T01:57:24.198Z,10.82
2018-03-14T01:59:51.755Z,8.30
2018-03-14T02:02:19.277Z,8.05
2018-03-14T02:04:46.953Z,10.38
2018-03-14T02:07:14.474Z,11.90
2018-03-14T02:09:42.481Z,13.10
2018-03-14T02:12:10.022Z,9.13
2018-03-14T02:14:37.545Z,9.80
2018-03-14T02:17:05.262Z,11.43
2018-03-14T02:19:32.788Z,17.67
2018-03-14T02:22:00.326Z,14.68
2018-03-14T02:24:27.874Z,18.42
2018-03-14T02:26:55.414Z,20.80
2018-03-14T02:29:23.261Z,22.77
2018-03-14T02:31:50.791Z,23.23
2018-03-14T02:34:18.320Z,20.08
2018-03-14T02:36:57.833Z,22.37
2018-03-14T02:39:25.361Z,21.75
2018-03-14T02:41:53.142Z,21.40
2018-03-14T02:44:20.684Z,25.52
2018-03-14T02:46:48.217Z,20.80
2018-03-14T02:49:16.664Z,21.52
2018-03-14T02:51:44.174Z,21.17
2018-03-14T02:54:11.965Z,19.00
2018-03-14T02:56:39.492Z,23.02
2018-03-14T02:59:07.518Z,22.02
2018-03-14T03:01:35.085Z,24.10
2018-03-14T03:04:02.597Z,19.62
2018-03-14T03:06:30.154Z,17.00
2018-03-14T03:08:57.666Z,23.83
2018-03-14T03:11:25.178Z,16.52
2018-03-14T03:13:52.722Z,22.90
2018-03-14T03:16:20.246Z,22.08
2018-03-14T03:18:47.986Z,21.52
2018-03-14T03:21:15.957Z,22.67
2018-03-14T03:23:43.465Z,20.92
2018-03-14T03:26:11.011Z,23.17
2018-03-14T03:28:38.521Z,23.80
2018-03-14T03:31:07.008Z,20.05
2018-03-14T03:33:35.474Z,21.58
2018-03-14T03:36:02.986Z,20.92
2018-03-14T03:38:30.611Z,21.62
2018-03-14T03:40:58.121Z,20.10
2018-03-14T03:43:25.667Z,21.90
2018-03-14T03:45:53.177Z,19.00
2018-03-14T03:48:20.686Z,21.60
2018-03-14T03:50:49.127Z,20.75
2018-03-14T03:53:17.583Z,22.77
2018-03-14T03:55:45.339Z,20.30
2018-03-14T03:58:12.849Z,22.25
2018-03-14T04:00:41.328Z,19.98
2018-03-14T04:03:09.254Z,22.48
2018-03-14T04:05:36.770Z,22.98
2018-03-14T04:08:04.340Z,19.92
2018-03-14T04:10:32.774Z,22.52
2018-03-14T04:13:00.285Z,21.42
2018-03-14T04:15:28.710Z,19.10
2018-03-14T04:17:56.225Z,20.42
2018-03-14T04:20:23.931Z,21.15
2018-03-14T04:22:51.442Z,21.60
2018-03-14T04:25:18.948Z,19.27
2018-03-14T04:27:46.482Z,21.23
2018-03-14T04:30:13.990Z,21.90
2018-03-14T04:32:41.543Z,23.62
2018-03-14T04:35:09.048Z,19.23
2018-03-14T04:37:37.566Z,18.85
2018-03-14T04:40:05.117Z,21.17
2018-03-14T04:42:32.633Z,21.08
2018-03-14T04:45:00.525Z,16.08
2018-03-14T04:47:28.044Z,13.02
2018-03-14T04:49:55.549Z,25.37
2018-03-14T04:52:23.078Z,15.50
2018-03-14T04:54:50.606Z,24.02
2018-03-14T04:57:18.369Z,20.62
2018-03-14T04:59:45.874Z,19.95
2018-03-14T05:02:13.391Z,18.48
2018-03-14T05:04:40.970Z,19.98
2018-03-14T05:07:08.478Z,26.70
2018-03-14T05:09:36.219Z,19.00
2018-03-14T05:12:03.730Z,19.00
2018-03-14T05:14:31.233Z,24.75
2018-03-14T05:16:58.777Z,22.10
2018-03-14T05:19:26.298Z,21.50
2018-03-14T05:21:53.849Z,21.90
2018-03-14T05:24:21.366Z,22.08
2018-03-14T05:26:48.930Z,19.50
2018-03-14T05:29:16.445Z,21.15
2018-03-14T05:31:44.889Z,22.80
2018-03-14T05:34:12.444Z,22.37
2018-03-14T05:36:39.957Z,20.52
2018-03-14T05:39:08.590Z,18.23
2018-03-14T05:41:36.142Z,33.25
2018-03-14T05:44:03.645Z,23.02
2018-03-14T05:46:31.190Z,25.45
2018-03-14T05:48:58.694Z,23.70
2018-03-14T05:51:26.206Z,24.58
2018-03-14T05:53:53.751Z,19.08
2018-03-14T05:56:21.257Z,21.42
2018-03-14T05:58:50.188Z,24.20
2018-03-14T06:01:17.698Z,19.73
2018-03-14T06:03:45.203Z,19.85
2018-03-14T06:06:12.734Z,21.87
2018-03-14T06:08:40.237Z,22.87
2018-03-14T06:11:07.966Z,20.00
2018-03-14T06:13:35.496Z,23.98
2018-03-14T06:16:03.005Z,18.55
2018-03-14T06:18:30.535Z,17.52
2018-03-14T06:20:58.049Z,23.00
2018-03-14T06:23:25.601Z,18.25
2018-03-14T06:25:53.114Z,21.20
2018-03-14T06:28:20.641Z,18.83
2018-03-14T06:30:48.177Z,15.82
2018-03-14T06:33:15.690Z,17.35
2018-03-14T06:35:43.477Z,17.73
2018-03-14T06:38:10.990Z,23.02
2018-03-14T06:40:38.510Z,16.00
2018-03-14T06:43:06.461Z,17.40
2018-03-14T06:45:33.972Z,16.55
2018-03-14T06:48:01.529Z,19.83
2018-03-14T06:50:29.039Z,15.32
2018-03-14T06:52:56.578Z,17.08
2018-03-14T06:55:24.109Z,16.02
2018-03-14T06:57:51.617Z,15.75
2018-03-14T07:00:31.767Z,17.45
2018-03-14T07:03:11.113Z,17.35
2018-03-14T07:05:50.437Z,18.25
2018-03-14T07:08:17.950Z,17.90
2018-03-14T07:10:45.738Z,15.43
2018-03-14T07:13:13.246Z,16.77
2018-03-14T07:15:40.775Z,21.52
2018-03-14T07:18:08.318Z,18.85
2018-03-14T07:20:35.830Z,14.10
2018-03-14T07:23:03.378Z,19.10
2018-03-14T07:25:30.906Z,15.25
2018-03-14T07:27:58.422Z,11.90
2018-03-14T07:30:25.970Z,17.85
2018-03-14T07:32:53.484Z,20.62
2018-03-14T07:35:21.046Z,14.77
2018-03-14T07:37:48.609Z,11.20
2018-03-14T07:40:16.125Z,16.73
2018-03-14T07:42:44.134Z,19.27
2018-03-14T07:45:11.795Z,16.73
2018-03-14T07:47:39.739Z,14.65
2018-03-14T07:50:07.280Z,14.27
2018-03-14T07:52:34.794Z,12.95
2018-03-14T07:55:02.334Z,18.62
2018-03-14T07:57:30.308Z,18.85
2018-03-14T07:59:57.849Z,14.60
2018-03-14T08:02:26.450Z,13.60
2018-03-14T08:04:54.413Z,14.18
2018-03-14T08:07:21.952Z,13.62
2018-03-14T08:09:49.468Z,14.20
2018-03-14T08:12:17.114Z,12.75
2018-03-14T08:14:44.625Z,14.50
2018-03-14T08:17:12.142Z,14.82
2018-03-14T08:19:39.684Z,20.70
2018-03-14T08:22:07.231Z,14.45
2018-03-14T08:24:34.968Z,13.73
2018-03-14T08:27:02.481Z,12.85
2018-03-14T08:29:30.117Z,15.13
2018-03-14T08:31:57.656Z,12.80
2018-03-14T08:34:25.245Z,12.85
2018-03-14T08:36:52.874Z,11.70
2018-03-14T08:39:20.452Z,13.32
2018-03-14T08:41:48.062Z,12.13
2018-03-14T08:44:15.775Z,15.95
2018-03-14T08:46:43.312Z,15.07
2018-03-14T08:49:10.872Z,10.02
2018-03-14T08:51:38.378Z,10.20
2018-03-14T08:54:05.898Z,15.38
2018-03-14T08:56:33.463Z,11.45
2018-03-14T08:59:00.974Z,9.95
2018-03-14T09:01:28.537Z,9.38
2018-03-14T09:03:57.310Z,15.77
2018-03-14T09:06:24.830Z,9.40
2018-03-14T09:08:53.677Z,6.55
2018-03-14T09:11:21.692Z,8.98
2018-03-14T09:13:49.354Z,11.27
2018-03-14T09:16:16.893Z,11.30
2018-03-14T09:18:44.427Z,13.63
2018-03-14T09:21:11.970Z,7.20
2018-03-14T09:23:39.486Z,10.07
2018-03-14T09:26:07.329Z,14.63
2018-03-14T09:28:34.846Z,11.53
2018-03-14T09:31:02.367Z,10.80
2018-03-14T09:33:29.915Z,13.20
2018-03-14T09:35:57.441Z,6.90
2018-03-14T09:38:25.122Z,9.13
2018-03-14T09:40:52.632Z,8.00
2018-03-14T09:43:20.157Z,8.07
2018-03-14T09:45:47.702Z,8.20
2018-03-14T09:48:15.694Z,7.30
2018-03-14T09:50:43.429Z,6.40
2018-03-14T09:53:11.071Z,5.13
2018-03-14T09:55:38.595Z,6.33
2018-03-14T09:58:06.215Z,7.17
2018-03-14T10:00:33.732Z,8.23
2018-03-14T10:03:01.271Z,4.87
2018-03-14T10:05:28.786Z,4.27
2018-03-14T10:07:56.301Z,7.20
2018-03-14T10:10:23.843Z,12.50
2018-03-14T10:12:51.551Z,8.33
2018-03-14T10:15:19.261Z,5.63
2018-03-14T10:17:46.792Z,4.67
2018-03-14T10:20:14.476Z,6.70
2018-03-14T10:22:42.444Z,4.63
2018-03-14T10:25:10.928Z,4.40
2018-03-14T10:27:38.779Z,4.30
2018-03-14T10:30:06.664Z,7.30
2018-03-14T10:32:34.195Z,4.90
2018-03-14T10:35:01.734Z,7.60
2018-03-14T10:37:29.282Z,5.57
2018-03-14T10:39:56.975Z,5.47
2018-03-14T10:42:24.970Z,7.47
2018-03-14T10:44:52.474Z,7.23
2018-03-14T10:47:20.007Z,6.03
2018-03-14T10:49:47.581Z,7.10
2018-03-14T10:52:15.138Z,4.90
2018-03-14T10:54:42.653Z,7.80
2018-03-14T10:57:10.166Z,7.60
2018-03-14T10:59:37.709Z,6.40
2018-03-14T11:05:10.222Z,12.30
2018-03-14T11:07:37.757Z,6.57
2018-03-14T11:10:05.629Z,9.30
2018-03-14T11:12:33.138Z,7.47
2018-03-14T11:15:00.662Z,7.70
2018-03-14T11:17:28.204Z,6.47
2018-03-14T11:19:55.714Z,7.40
2018-03-14T11:22:24.213Z,11.73
2018-03-14T11:24:51.721Z,6.47
2018-03-14T11:27:19.234Z,8.20
2018-03-14T11:29:46.782Z,8.90
2018-03-14T11:32:14.297Z,9.97
2018-03-14T11:34:41.982Z,13.10
2018-03-14T11:37:09.772Z,11.73
2018-03-14T11:39:37.300Z,8.00
2018-03-14T11:42:04.843Z,7.17
2018-03-14T11:44:32.360Z,7.53
2018-03-14T11:47:00.086Z,7.90
2018-03-14T11:49:27.595Z,8.67
2018-03-14T11:51:55.100Z,9.47
2018-03-14T11:54:22.629Z,9.23
2018-03-14T11:56:50.188Z,12.13
2018-03-14T11:59:17.878Z,8.70
2018-03-14T12:01:45.397Z,6.83
2018-03-14T12:04:12.907Z,6.13
2018-03-14T12:06:40.450Z,7.17
2018-03-14T12:09:08.014Z,10.53
2018-03-14T12:11:35.554Z,9.27
2018-03-14T12:14:03.088Z,6.97
2018-03-14T12:16:30.597Z,4.13
2018-03-14T12:18:58.126Z,8.97
2018-03-14T12:21:25.633Z,4.83
2018-03-14T12:23:53.483Z,4.30
2018-03-14T12:26:21.205Z,4.13
2018-03-14T12:28:48.742Z,7.43
2018-03-14T12:31:16.484Z,7.17
2018-03-14T12:33:44.003Z,10.93
2018-03-14T12:36:12.068Z,8.87
2018-03-14T12:38:39.585Z,8.40
2018-03-14T12:41:07.117Z,8.60
2018-03-14T12:43:34.794Z,8.07
2018-03-14T12:46:02.411Z,9.90
2018-03-14T12:48:30.525Z,6.83
2018-03-14T12:50:58.290Z,7.60
2018-03-14T12:53:26.156Z,8.97
2018-03-14T12:55:54.124Z,6.87
2018-03-14T12:58:21.686Z,8.87
2018-03-14T13:00:49.437Z,10.10
2018-03-14T13:03:17.305Z,8.53
2018-03-14T13:05:45.032Z,9.60
2018-03-14T13:08:12.828Z,8.40
2018-03-14T13:10:40.374Z,15.63
2018-03-14T13:13:08.211Z,10.27
2018-03-14T13:15:35.828Z,9.63
2018-03-14T13:18:03.592Z,12.93
2018-03-14T13:20:31.333Z,10.33
2018-03-14T13:22:58.850Z,11.17
2018-03-14T13:25:26.411Z,12.93
2018-03-14T13:27:54.125Z,11.87
2018-03-14T13:30:21.650Z,12.23
2018-03-14T13:32:49.243Z,11.10
2018-03-14T13:35:17.428Z,10.40
2018-03-14T13:37:45.032Z,7.40
2018-03-14T13:40:12.611Z,11.77
2018-03-14T13:42:40.152Z,12.37
2018-03-14T13:45:07.718Z,9.00
2018-03-14T13:47:35.225Z,11.60
2018-03-14T13:50:02.954Z,9.13
2018-03-14T13:52:30.501Z,13.10
2018-03-14T13:54:58.049Z,10.07
2018-03-14T13:57:25.972Z,9.70
2018-03-14T13:59:53.521Z,8.90
2018-03-14T14:02:21.098Z,9.23
2018-03-14T14:04:48.671Z,11.20
2018-03-14T14:07:16.722Z,11.47
2018-03-14T14:09:44.256Z,8.07
2018-03-14T14:12:11.987Z,11.10
2018-03-14T14:14:39.707Z,12.57
2018-03-14T14:17:07.224Z,11.70
2018-03-14T14:19:34.874Z,9.03
2018-03-14T14:22:02.389Z,10.87
2018-03-14T14:24:30.035Z,10.70
2018-03-14T14:26:57.622Z,11.73
2018-03-14T14:29:25.151Z,13.17
2018-03-14T14:31:52.803Z,13.37
2018-03-14T14:34:20.661Z,14.33
2018-03-14T14:36:48.206Z,10.23
2018-03-14T14:39:15.914Z,12.20
2018-03-14T14:41:43.660Z,12.80
2018-03-14T14:44:11.442Z,9.77
2018-03-14T14:46:39.103Z,10.70
2018-03-14T14:49:07.585Z,11.23
2018-03-14T14:51:35.862Z,10.30
2018-03-14T14:54:03.475Z,9.63
2018-03-14T14:56:31.023Z,10.20
2018-03-14T14:58:59.704Z,10.50
2018-03-14T15:01:27.297Z,9.70
2018-03-14T15:03:55.091Z,9.47
2018-03-14T15:06:22.854Z,9.73
2018-03-14T15:08:50.823Z,14.67
2018-03-14T15:11:18.558Z,10.80
2018-03-14T15:13:46.455Z,9.70
2018-03-14T15:16:14.631Z,10.93
2018-03-14T15:18:43.214Z,9.77
2018-03-14T15:21:11.190Z,10.03
2018-03-14T15:23:38.931Z,11.10
2018-03-14T15:26:07.015Z,16.23
2018-03-14T15:28:34.985Z,12.37
2018-03-14T15:31:02.913Z,12.80
2018-03-14T15:33:31.026Z,12.17
2018-03-14T15:35:58.881Z,13.13
2018-03-14T15:38:26.968Z,13.90
2018-03-14T15:40:54.828Z,12.13
2018-03-14T15:43:23.515Z,10.70
2018-03-14T15:45:51.482Z,12.93
2018-03-14T15:48:19.341Z,13.60
2018-03-14T15:50:47.281Z,14.83
2018-03-14T15:53:14.980Z,15.30
2018-03-14T15:55:42.744Z,15.57
2018-03-14T15:58:10.510Z,13.20
2018-03-14T16:00:38.271Z,15.02
2018-03-14T16:03:06.343Z,14.80
2018-03-14T16:05:34.004Z,10.45
2018-03-14T16:08:01.556Z,15.20
2018-03-14T16:10:29.224Z,15.27
2018-03-14T16:12:57.091Z,16.45
2018-03-14T16:15:24.956Z,14.20
2018-03-14T16:17:52.630Z,15.40
2018-03-14T16:20:20.280Z,12.02
2018-03-14T16:22:48.249Z,13.02
2018-03-14T16:25:16.117Z,15.18
2018-03-14T16:27:43.880Z,12.27
2018-03-14T16:30:11.747Z,22.33
2018-03-14T16:32:39.513Z,18.20
2018-03-14T16:35:07.377Z,10.73
2018-03-14T16:37:35.222Z,16.37
2018-03-14T16:40:03.100Z,15.07
2018-03-14T16:42:30.874Z,17.20
2018-03-14T16:44:58.720Z,18.83
2018-03-14T16:47:26.505Z,15.77
2018-03-14T16:49:54.373Z,11.82
2018-03-14T16:52:22.749Z,17.87
2018-03-14T16:54:50.618Z,16.10
2018-03-14T16:57:18.482Z,17.83
2018-03-14T16:59:46.449Z,14.73
2018-03-14T17:02:14.238Z,17.80
2018-03-14T17:04:42.184Z,20.00
2018-03-14T17:07:10.051Z,17.48
2018-03-14T17:09:37.919Z,15.50
2018-03-14T17:12:05.884Z,17.37
2018-03-14T17:14:33.857Z,17.75
2018-03-14T17:17:01.888Z,18.17
2018-03-14T17:19:29.792Z,19.85
2018-03-14T17:21:57.659Z,12.35
2018-03-14T17:24:25.627Z,13.65
2018-03-14T17:26:53.498Z,24.52
2018-03-14T17:29:21.564Z,13.70
2018-03-14T17:31:49.613Z,19.67
2018-03-14T17:34:17.608Z,18.70
2018-03-14T17:36:45.575Z,22.40
2018-03-14T17:39:13.544Z,17.35
2018-03-14T17:41:41.781Z,22.33
2018-03-14T17:44:09.688Z,21.65
2018-03-14T17:46:37.488Z,17.40
2018-03-14T17:49:05.317Z,24.30
2018-03-14T17:51:33.859Z,26.75
2018-03-14T17:54:02.381Z,40.55
2018-03-14T17:56:30.206Z,24.58
2018-03-14T17:58:58.114Z,19.37
2018-03-14T18:01:26.082Z,22.77
2018-03-14T18:03:53.949Z,32.92
2018-03-14T18:06:22.225Z,26.20
2018-03-14T18:08:51.628Z,32.72
2018-03-14T18:11:19.698Z,38.28
2018-03-14T18:13:48.795Z,31.77
2018-03-14T18:16:16.763Z,26.73
2018-03-14T18:18:46.883Z,25.92
2018-03-14T18:21:14.749Z,20.30
2018-03-14T18:23:42.716Z,20.08
2018-03-14T18:26:11.502Z,20.52
2018-03-14T18:28:39.369Z,19.52
2018-03-14T18:31:07.640Z,27.50
2018-03-14T18:33:35.641Z,23.65
2018-03-14T18:36:07.679Z,17.10
2018-03-14T18:38:35.956Z,17.45
2018-03-14T18:41:03.924Z,18.27
2018-03-14T18:43:31.723Z,17.73
2018-03-14T18:45:59.762Z,16.12
2018-03-14T18:48:27.627Z,18.05
2018-03-14T18:50:55.742Z,21.48
2018-03-14T18:53:24.440Z,21.52
2018-03-14T18:55:52.556Z,16.67
2018-03-14T18:58:20.422Z,14.73
2018-03-14T19:00:49.109Z,17.92
2018-03-14T19:03:18.786Z,20.45
2018-03-14T19:05:46.685Z,19.80
2018-03-14T19:08:15.082Z,21.33
2018-03-14T19:10:42.889Z,19.12
2018-03-14T19:13:10.750Z,18.58
2018-03-14T19:15:38.646Z,22.85
2018-03-14T19:18:06.531Z,20.37
2018-03-14T19:20:36.035Z,24.25
2018-03-14T19:23:04.108Z,17.05
2018-03-14T19:25:32.586Z,18.55
2018-03-14T19:28:00.561Z,29.12
2018-03-14T19:30:28.832Z,18.90
2018-03-14T19:32:57.109Z,22.87
2018-03-14T19:35:25.075Z,27.00
2018-03-14T19:37:52.918Z,23.20
2018-03-14T19:40:21.013Z,21.85
2018-03-14T19:42:49.098Z,27.30
2018-03-14T19:45:17.366Z,22.95
2018-03-14T19:47:45.228Z,26.23
2018-03-14T19:50:13.212Z,18.70
2018-03-14T19:52:42.190Z,21.20
2018-03-14T19:55:10.061Z,26.55
2018-03-14T19:57:38.146Z,24.17
2018-03-14T20:00:07.016Z,23.65
2018-03-14T20:02:34.883Z,21.45
2018-03-14T20:05:02.856Z,18.92
2018-03-14T20:07:30.718Z,18.70
2018-03-14T20:09:58.994Z,21.85
2018-03-14T20:12:26.861Z,22.92
2018-03-14T20:14:54.669Z,26.37
2018-03-14T20:17:22.697Z,20.88
2018-03-14T20:19:50.558Z,20.17
2018-03-14T20:22:18.755Z,19.48
2018-03-14T20:24:47.286Z,25.17
2018-03-14T20:27:15.390Z,19.05
2018-03-14T20:29:43.359Z,20.67
2018-03-14T20:32:11.225Z,16.05
2018-03-14T20:34:39.129Z,22.42
2018-03-14T20:37:07.020Z,28.23
2018-03-14T20:39:35.238Z,28.35
2018-03-14T20:42:03.182Z,34.88
2018-03-14T20:44:31.071Z,25.20
2018-03-14T20:47:00.136Z,22.35
2018-03-14T20:49:28.208Z,36.38
2018-03-14T20:51:57.228Z,29.87
2018-03-14T20:54:25.261Z,26.35
2018-03-14T20:56:53.166Z,21.00
2018-03-14T20:59:21.739Z,28.48
2018-03-14T21:01:50.640Z,27.35
2018-03-14T21:04:18.713Z,23.50
2018-03-14T21:06:46.680Z,24.55
2018-03-14T21:09:15.263Z,24.27
2018-03-14T21:11:44.667Z,26.33
2018-03-14T21:14:13.454Z,20.12
2018-03-14T21:16:41.320Z,21.67
2018-03-14T21:19:09.290Z,28.15
2018-03-14T21:21:38.198Z,28.12
2018-03-14T21:24:06.251Z,24.75
2018-03-14T21:26:34.556Z,28.95
2018-03-14T21:29:02.496Z,22.20
2018-03-14T21:31:30.364Z,26.20
2018-03-14T21:33:58.638Z,25.92
2018-03-14T21:36:26.847Z,24.05
2018-03-14T21:38:55.663Z,26.30
2018-03-14T21:41:24.285Z,22.37
2018-03-14T21:43:52.253Z,40.95
2018-03-14T21:46:20.187Z,28.48
2018-03-14T21:48:48.501Z,20.73
2018-03-14T21:51:16.410Z,29.73
2018-03-14T21:53:44.281Z,29.33
2018-03-14T21:56:12.207Z,19.30
2018-03-14T21:58:39.967Z,19.33
2018-03-14T22:01:07.937Z,47.17
2018-03-14T22:03:36.007Z,48.03
2018-03-14T22:06:04.332Z,45.45
2018-03-14T22:08:32.559Z,34.38
2018-03-14T22:11:00.222Z,32.72
2018-03-14T22:13:28.107Z,27.75
2018-03-14T22:15:55.952Z,37.22
2018-03-14T22:18:23.819Z,31.10
2018-03-14T22:20:51.468Z,44.45
2018-03-14T22:23:19.288Z,37.13
2018-03-14T22:25:47.010Z,30.12
2018-03-14T22:28:14.772Z,29.12
2018-03-14T22:30:42.639Z,40.08
2018-03-14T22:33:10.260Z,32.15
2018-03-14T22:35:37.889Z,26.37
2018-03-14T22:38:05.604Z,26.80
2018-03-14T22:40:33.184Z,34.83
2018-03-14T22:43:00.802Z,19.70
2018-03-14T22:45:28.352Z,25.23
2018-03-14T22:47:55.893Z,24.42
2018-03-14T22:50:23.623Z,23.12
2018-03-14T22:52:51.285Z,28.27
2018-03-14T22:55:19.006Z,29.08
2018-03-14T22:57:46.714Z,21.67
2018-03-14T23:00:14.683Z,28.62
2018-03-14T23:02:42.546Z,24.45
2018-03-14T23:05:11.193Z,23.65
2018-03-14T23:07:39.289Z,29.90
2018-03-14T23:10:06.938Z,23.75
2018-03-14T23:12:34.731Z,23.00
2018-03-14T23:15:02.482Z,26.08
2018-03-14T23:17:30.259Z,26.48
2018-03-14T23:19:58.213Z,24.10
2018-03-14T23:22:25.874Z,26.67
2018-03-14T23:24:53.530Z,21.12
2018-03-14T23:27:21.211Z,21.12
2018-03-14T23:29:48.858Z,23.30
2018-03-14T23:32:16.453Z,30.15
2018-03-14T23:34:44.298Z,38.10
2018-03-14T23:37:11.887Z,27.08
2018-03-14T23:39:39.518Z,27.77
2018-03-14T23:42:07.038Z,27.75
2018-03-14T23:44:34.817Z,31.30
2018-03-14T23:47:02.342Z,28.27
2018-03-14T23:49:29.849Z,26.58
2018-03-14T23:51:57.381Z,21.40
2018-03-14T23:54:24.895Z,24.48
2018-03-14T23:56:53.355Z,27.05
2018-03-14T23:59:20.870Z,25.58
